sensor_id;sensor_type;location;lat;lon;timestamp;P1;durP1;ratioP1;P2;durP2;ratioP2
73015;SDS011;61893;50.074;14.440;2022-09-21T00:02:00;5.60;;;2.85;;
73015;SDS011;61893;50.074;14.440;2022-09-21T00:04:25;6.70;;;3.10;;
73015;SDS011;61893;50.074;14.440;2022-09-21T00:06:51;8.75;;;3.65;;
73015;SDS011;61893;50.074;14.440;2022-09-21T00:09:17;6.50;;;3.70;;
73015;SDS011;61893;50.074;14.440;2022-09-21T00:11:42;5.65;;;3.38;;
73015;SDS011;61893;50.074;14.440;2022-09-21T00:14:10;6.53;;;3.63;;
73015;SDS011;61893;50.074;14.440;2022-09-21T00:16:41;8.65;;;4.28;;
73015;SDS011;61893;50.074;14.440;2022-09-21T00:19:08;6.82;;;3.78;;
73015;SDS011;61893;50.074;14.440;2022-09-21T00:21:34;6.95;;;3.88;;
73015;SDS011;61893;50.074;14.440;2022-09-21T00:24:02;8.98;;;3.90;;
73015;SDS011;61893;50.074;14.440;2022-09-21T00:26:29;8.27;;;3.60;;
73015;SDS011;61893;50.074;14.440;2022-09-21T00:28:59;4.95;;;3.65;;
73015;SDS011;61893;50.074;14.440;2022-09-21T00:31:27;9.73;;;3.67;;
73015;SDS011;61893;50.074;14.440;2022-09-21T00:33:55;8.05;;;3.65;;
73015;SDS011;61893;50.074;14.440;2022-09-21T00:36:23;6.43;;;3.85;;
73015;SDS011;61893;50.074;14.440;2022-09-21T00:38:50;7.50;;;4.13;;
73015;SDS011;61893;50.074;14.440;2022-09-21T00:41:18;9.02;;;4.03;;
73015;SDS011;61893;50.074;14.440;2022-09-21T00:43:46;6.68;;;4.03;;
73015;SDS011;61893;50.074;14.440;2022-09-21T00:46:25;8.55;;;4.45;;
73015;SDS011;61893;50.074;14.440;2022-09-21T00:48:54;7.35;;;4.45;;
73015;SDS011;61893;50.074;14.440;2022-09-21T00:51:21;8.80;;;3.47;;
73015;SDS011;61893;50.074;14.440;2022-09-21T00:53:47;5.90;;;3.53;;
73015;SDS011;61893;50.074;14.440;2022-09-21T00:56:18;5.72;;;3.80;;
73015;SDS011;61893;50.074;14.440;2022-09-21T00:58:45;7.97;;;3.80;;
73015;SDS011;61893;50.074;14.440;2022-09-21T01:01:14;5.32;;;3.30;;
73015;SDS011;61893;50.074;14.440;2022-09-21T01:03:43;6.72;;;4.07;;
73015;SDS011;61893;50.074;14.440;2022-09-21T01:06:11;6.28;;;3.92;;
73015;SDS011;61893;50.074;14.440;2022-09-21T01:08:38;9.65;;;3.72;;
73015;SDS011;61893;50.074;14.440;2022-09-21T01:11:24;6.70;;;3.70;;
73015;SDS011;61893;50.074;14.440;2022-09-21T01:14:13;5.25;;;3.78;;
73015;SDS011;61893;50.074;14.440;2022-09-21T01:22:35;5.72;;;3.30;;
73015;SDS011;61893;50.074;14.440;2022-09-21T01:25:46;8.32;;;3.83;;
73015;SDS011;61893;50.074;14.440;2022-09-21T01:30:46;6.40;;;3.53;;
73015;SDS011;61893;50.074;14.440;2022-09-21T01:33:26;8.48;;;3.97;;
73015;SDS011;61893;50.074;14.440;2022-09-21T01:36:03;5.70;;;3.60;;
73015;SDS011;61893;50.074;14.440;2022-09-21T01:38:35;5.28;;;3.47;;
73015;SDS011;61893;50.074;14.440;2022-09-21T01:41:05;8.02;;;3.72;;
73015;SDS011;61893;50.074;14.440;2022-09-21T01:43:35;7.05;;;3.80;;
73015;SDS011;61893;50.074;14.440;2022-09-21T01:46:04;8.60;;;3.60;;
73015;SDS011;61893;50.074;14.440;2022-09-21T01:48:36;6.32;;;3.33;;
73015;SDS011;61893;50.074;14.440;2022-09-21T01:51:06;6.60;;;3.83;;
73015;SDS011;61893;50.074;14.440;2022-09-21T01:56:12;7.07;;;4.20;;
73015;SDS011;61893;50.074;14.440;2022-09-21T01:58:49;9.52;;;3.17;;
73015;SDS011;61893;50.074;14.440;2022-09-21T02:01:24;8.13;;;4.07;;
73015;SDS011;61893;50.074;14.440;2022-09-21T02:03:55;7.78;;;3.50;;
73015;SDS011;61893;50.074;14.440;2022-09-21T02:06:25;6.20;;;3.72;;
73015;SDS011;61893;50.074;14.440;2022-09-21T02:08:52;7.53;;;3.60;;
73015;SDS011;61893;50.074;14.440;2022-09-21T02:11:19;5.32;;;3.33;;
73015;SDS011;61893;50.074;14.440;2022-09-21T02:13:45;8.90;;;3.83;;
73015;SDS011;61893;50.074;14.440;2022-09-21T02:19:20;5.95;;;3.50;;
73015;SDS011;61893;50.074;14.440;2022-09-21T02:22:47;6.30;;;3.53;;
73015;SDS011;61893;50.074;14.440;2022-09-21T02:24:56;7.53;;;3.85;;
73015;SDS011;61893;50.074;14.440;2022-09-21T02:27:43;4.93;;;3.22;;
73015;SDS011;61893;50.074;14.440;2022-09-21T02:40:39;7.90;;;2.97;;
73015;SDS011;61893;50.074;14.440;2022-09-21T02:43:21;5.30;;;3.17;;
73015;SDS011;61893;50.074;14.440;2022-09-21T02:45:51;6.70;;;3.35;;
73015;SDS011;61893;50.074;14.440;2022-09-21T02:48:24;3.85;;;2.88;;
73015;SDS011;61893;50.074;14.440;2022-09-21T02:50:57;5.35;;;3.05;;
73015;SDS011;61893;50.074;14.440;2022-09-21T02:53:28;4.55;;;2.95;;
73015;SDS011;61893;50.074;14.440;2022-09-21T02:55:58;5.70;;;3.03;;
73015;SDS011;61893;50.074;14.440;2022-09-21T02:58:33;5.07;;;3.10;;
73015;SDS011;61893;50.074;14.440;2022-09-21T03:01:02;10.32;;;3.75;;
73015;SDS011;61893;50.074;14.440;2022-09-21T03:03:31;5.68;;;2.80;;
73015;SDS011;61893;50.074;14.440;2022-09-21T03:05:57;6.15;;;3.10;;
73015;SDS011;61893;50.074;14.440;2022-09-21T03:08:24;5.40;;;2.58;;
73015;SDS011;61893;50.074;14.440;2022-09-21T03:10:50;6.10;;;2.95;;
73015;SDS011;61893;50.074;14.440;2022-09-21T03:13:16;5.47;;;3.03;;
73015;SDS011;61893;50.074;14.440;2022-09-21T03:15:43;5.68;;;2.88;;
73015;SDS011;61893;50.074;14.440;2022-09-21T03:18:10;4.05;;;3.10;;
73015;SDS011;61893;50.074;14.440;2022-09-21T03:20:38;8.02;;;3.50;;
73015;SDS011;61893;50.074;14.440;2022-09-21T03:23:05;6.43;;;3.42;;
73015;SDS011;61893;50.074;14.440;2022-09-21T03:25:31;6.55;;;3.35;;
73015;SDS011;61893;50.074;14.440;2022-09-21T03:27:57;5.10;;;3.58;;
73015;SDS011;61893;50.074;14.440;2022-09-21T03:30:24;5.53;;;3.15;;
73015;SDS011;61893;50.074;14.440;2022-09-21T03:32:51;6.95;;;3.85;;
73015;SDS011;61893;50.074;14.440;2022-09-21T03:35:35;6.93;;;2.95;;
73015;SDS011;61893;50.074;14.440;2022-09-21T03:38:01;4.88;;;3.30;;
73015;SDS011;61893;50.074;14.440;2022-09-21T03:40:27;5.53;;;3.13;;
73015;SDS011;61893;50.074;14.440;2022-09-21T03:42:53;7.43;;;3.40;;
73015;SDS011;61893;50.074;14.440;2022-09-21T03:45:19;5.65;;;3.58;;
73015;SDS011;61893;50.074;14.440;2022-09-21T03:47:55;5.38;;;3.15;;
73015;SDS011;61893;50.074;14.440;2022-09-21T03:50:23;6.50;;;3.38;;
73015;SDS011;61893;50.074;14.440;2022-09-21T03:52:50;5.65;;;3.20;;
73015;SDS011;61893;50.074;14.440;2022-09-21T03:55:16;5.60;;;3.72;;
73015;SDS011;61893;50.074;14.440;2022-09-21T03:57:42;6.75;;;3.38;;
73015;SDS011;61893;50.074;14.440;2022-09-21T04:00:08;7.20;;;2.85;;
73015;SDS011;61893;50.074;14.440;2022-09-21T04:02:36;6.60;;;3.25;;
73015;SDS011;61893;50.074;14.440;2022-09-21T04:05:07;4.95;;;3.13;;
73015;SDS011;61893;50.074;14.440;2022-09-21T04:07:33;7.20;;;3.65;;
73015;SDS011;61893;50.074;14.440;2022-09-21T04:10:01;10.13;;;3.67;;
73015;SDS011;61893;50.074;14.440;2022-09-21T04:12:28;4.40;;;2.95;;
73015;SDS011;61893;50.074;14.440;2022-09-21T04:14:55;7.53;;;3.45;;
73015;SDS011;61893;50.074;14.440;2022-09-21T04:17:20;5.47;;;3.00;;
73015;SDS011;61893;50.074;14.440;2022-09-21T04:19:46;7.43;;;3.50;;
73015;SDS011;61893;50.074;14.440;2022-09-21T04:22:13;8.55;;;3.38;;
73015;SDS011;61893;50.074;14.440;2022-09-21T04:24:39;5.68;;;3.40;;
73015;SDS011;61893;50.074;14.440;2022-09-21T04:27:22;7.03;;;3.08;;
73015;SDS011;61893;50.074;14.440;2022-09-21T04:29:49;6.57;;;3.00;;
73015;SDS011;61893;50.074;14.440;2022-09-21T04:32:15;4.97;;;3.13;;
73015;SDS011;61893;50.074;14.440;2022-09-21T04:34:40;7.55;;;3.00;;
73015;SDS011;61893;50.074;14.440;2022-09-21T04:37:06;7.53;;;3.10;;
73015;SDS011;61893;50.074;14.440;2022-09-21T04:39:33;5.18;;;3.17;;
73015;SDS011;61893;50.074;14.440;2022-09-21T04:42:00;7.68;;;3.47;;
73015;SDS011;61893;50.074;14.440;2022-09-21T04:44:26;5.50;;;3.50;;
73015;SDS011;61893;50.074;14.440;2022-09-21T04:46:52;7.40;;;3.13;;
73015;SDS011;61893;50.074;14.440;2022-09-21T04:49:18;5.50;;;3.17;;
73015;SDS011;61893;50.074;14.440;2022-09-21T04:51:44;6.47;;;3.33;;
73015;SDS011;61893;50.074;14.440;2022-09-21T04:54:09;6.30;;;3.28;;
73015;SDS011;61893;50.074;14.440;2022-09-21T04:56:35;5.35;;;3.15;;
73015;SDS011;61893;50.074;14.440;2022-09-21T04:59:04;10.50;;;3.25;;
73015;SDS011;61893;50.074;14.440;2022-09-21T05:01:30;5.63;;;3.28;;
73015;SDS011;61893;50.074;14.440;2022-09-21T05:03:56;6.70;;;3.70;;
73015;SDS011;61893;50.074;14.440;2022-09-21T05:06:28;7.57;;;3.35;;
73015;SDS011;61893;50.074;14.440;2022-09-21T05:08:55;6.60;;;2.88;;
73015;SDS011;61893;50.074;14.440;2022-09-21T05:11:47;5.55;;;2.75;;
73015;SDS011;61893;50.074;14.440;2022-09-21T05:14:13;6.35;;;3.17;;
73015;SDS011;61893;50.074;14.440;2022-09-21T05:16:39;7.20;;;4.00;;
73015;SDS011;61893;50.074;14.440;2022-09-21T05:19:05;7.75;;;3.83;;
73015;SDS011;61893;50.074;14.440;2022-09-21T05:21:33;5.97;;;3.40;;
73015;SDS011;61893;50.074;14.440;2022-09-21T05:24:01;5.18;;;3.22;;
73015;SDS011;61893;50.074;14.440;2022-09-21T05:26:28;10.02;;;3.72;;
73015;SDS011;61893;50.074;14.440;2022-09-21T05:28:53;7.32;;;4.00;;
73015;SDS011;61893;50.074;14.440;2022-09-21T05:39:14;8.52;;;3.55;;
73015;SDS011;61893;50.074;14.440;2022-09-21T05:41:40;7.65;;;3.30;;
73015;SDS011;61893;50.074;14.440;2022-09-21T05:44:08;7.30;;;3.80;;
73015;SDS011;61893;50.074;14.440;2022-09-21T05:46:38;7.65;;;3.55;;
73015;SDS011;61893;50.074;14.440;2022-09-21T05:58:30;7.25;;;4.18;;
73015;SDS011;61893;50.074;14.440;2022-09-21T06:04:06;6.07;;;3.78;;
73015;SDS011;61893;50.074;14.440;2022-09-21T06:06:36;7.25;;;3.53;;
73015;SDS011;61893;50.074;14.440;2022-09-21T06:09:02;6.25;;;3.67;;
73015;SDS011;61893;50.074;14.440;2022-09-21T06:11:28;7.90;;;3.65;;
73015;SDS011;61893;50.074;14.440;2022-09-21T06:13:59;6.47;;;3.92;;
73015;SDS011;61893;50.074;14.440;2022-09-21T06:16:36;8.02;;;4.03;;
73015;SDS011;61893;50.074;14.440;2022-09-21T06:19:11;7.57;;;4.13;;
73015;SDS011;61893;50.074;14.440;2022-09-21T06:21:38;10.50;;;3.50;;
73015;SDS011;61893;50.074;14.440;2022-09-21T06:24:03;7.85;;;3.95;;
73015;SDS011;61893;50.074;14.440;2022-09-21T06:26:30;10.13;;;3.80;;
73015;SDS011;61893;50.074;14.440;2022-09-21T06:29:03;7.35;;;3.67;;
73015;SDS011;61893;50.074;14.440;2022-09-21T06:31:41;5.75;;;3.53;;
73015;SDS011;61893;50.074;14.440;2022-09-21T06:34:10;5.53;;;3.55;;
73015;SDS011;61893;50.074;14.440;2022-09-21T06:36:37;9.95;;;3.85;;
73015;SDS011;61893;50.074;14.440;2022-09-21T06:39:04;7.15;;;3.50;;
73015;SDS011;61893;50.074;14.440;2022-09-21T06:41:55;8.57;;;3.90;;
73015;SDS011;61893;50.074;14.440;2022-09-21T06:44:22;6.80;;;3.85;;
73015;SDS011;61893;50.074;14.440;2022-09-21T06:46:51;5.00;;;3.53;;
73015;SDS011;61893;50.074;14.440;2022-09-21T06:49:17;6.60;;;3.75;;
73015;SDS011;61893;50.074;14.440;2022-09-21T06:51:43;5.63;;;3.45;;
73015;SDS011;61893;50.074;14.440;2022-09-21T06:54:08;5.25;;;3.50;;
73015;SDS011;61893;50.074;14.440;2022-09-21T06:56:37;9.13;;;4.05;;
73015;SDS011;61893;50.074;14.440;2022-09-21T06:59:03;5.45;;;3.88;;
73015;SDS011;61893;50.074;14.440;2022-09-21T07:01:29;7.57;;;3.75;;
73015;SDS011;61893;50.074;14.440;2022-09-21T07:03:55;6.88;;;3.80;;
73015;SDS011;61893;50.074;14.440;2022-09-21T07:06:23;6.03;;;3.92;;
73015;SDS011;61893;50.074;14.440;2022-09-21T07:08:50;8.52;;;3.80;;
73015;SDS011;61893;50.074;14.440;2022-09-21T07:11:18;12.00;;;3.83;;
73015;SDS011;61893;50.074;14.440;2022-09-21T07:13:45;7.53;;;3.78;;
73015;SDS011;61893;50.074;14.440;2022-09-21T07:16:13;9.07;;;4.40;;
73015;SDS011;61893;50.074;14.440;2022-09-21T07:18:41;9.30;;;4.50;;
73015;SDS011;61893;50.074;14.440;2022-09-21T07:21:08;10.73;;;3.90;;
73015;SDS011;61893;50.074;14.440;2022-09-21T07:23:35;9.07;;;4.28;;
73015;SDS011;61893;50.074;14.440;2022-09-21T07:26:06;9.88;;;3.63;;
73015;SDS011;61893;50.074;14.440;2022-09-21T07:28:34;10.10;;;4.05;;
73015;SDS011;61893;50.074;14.440;2022-09-21T07:31:10;11.55;;;4.18;;
73015;SDS011;61893;50.074;14.440;2022-09-21T07:33:43;7.38;;;3.80;;
73015;SDS011;61893;50.074;14.440;2022-09-21T07:36:28;6.18;;;3.58;;
73015;SDS011;61893;50.074;14.440;2022-09-21T07:39:02;5.63;;;3.53;;
73015;SDS011;61893;50.074;14.440;2022-09-21T07:41:43;6.55;;;3.50;;
73015;SDS011;61893;50.074;14.440;2022-09-21T07:44:35;7.97;;;3.67;;
73015;SDS011;61893;50.074;14.440;2022-09-21T07:47:03;4.50;;;3.00;;
73015;SDS011;61893;50.074;14.440;2022-09-21T07:49:31;8.23;;;3.10;;
73015;SDS011;61893;50.074;14.440;2022-09-21T07:52:06;6.80;;;2.60;;
73015;SDS011;61893;50.074;14.440;2022-09-21T07:54:52;5.28;;;2.75;;
73015;SDS011;61893;50.074;14.440;2022-09-21T07:57:25;5.70;;;2.67;;
73015;SDS011;61893;50.074;14.440;2022-09-21T08:00:36;3.63;;;2.50;;
73015;SDS011;61893;50.074;14.440;2022-09-21T08:03:06;4.78;;;2.45;;
73015;SDS011;61893;50.074;14.440;2022-09-21T08:05:32;3.67;;;2.78;;
73015;SDS011;61893;50.074;14.440;2022-09-21T08:08:03;5.22;;;3.50;;
73015;SDS011;61893;50.074;14.440;2022-09-21T08:10:29;5.93;;;3.00;;
73015;SDS011;61893;50.074;14.440;2022-09-21T08:12:56;7.78;;;2.88;;
73015;SDS011;61893;50.074;14.440;2022-09-21T08:15:22;4.45;;;2.60;;
73015;SDS011;61893;50.074;14.440;2022-09-21T08:17:48;4.75;;;3.03;;
73015;SDS011;61893;50.074;14.440;2022-09-21T08:20:16;5.63;;;2.88;;
73015;SDS011;61893;50.074;14.440;2022-09-21T08:22:43;3.58;;;2.88;;
73015;SDS011;61893;50.074;14.440;2022-09-21T08:25:14;5.13;;;2.85;;
73015;SDS011;61893;50.074;14.440;2022-09-21T08:27:40;4.95;;;2.58;;
73015;SDS011;61893;50.074;14.440;2022-09-21T08:30:22;2.70;;;1.83;;
73015;SDS011;61893;50.074;14.440;2022-09-21T08:33:03;4.53;;;2.00;;
73015;SDS011;61893;50.074;14.440;2022-09-21T08:35:34;4.13;;;1.80;;
73015;SDS011;61893;50.074;14.440;2022-09-21T08:38:01;3.28;;;2.10;;
73015;SDS011;61893;50.074;14.440;2022-09-21T08:40:31;3.30;;;2.00;;
73015;SDS011;61893;50.074;14.440;2022-09-21T08:42:59;10.07;;;2.10;;
73015;SDS011;61893;50.074;14.440;2022-09-21T08:45:31;4.10;;;2.25;;
73015;SDS011;61893;50.074;14.440;2022-09-21T08:48:21;5.63;;;2.05;;
73015;SDS011;61893;50.074;14.440;2022-09-21T08:50:50;4.47;;;2.50;;
73015;SDS011;61893;50.074;14.440;2022-09-21T08:53:20;3.13;;;2.10;;
73015;SDS011;61893;50.074;14.440;2022-09-21T08:55:56;3.80;;;2.35;;
73015;SDS011;61893;50.074;14.440;2022-09-21T08:58:45;5.72;;;3.00;;
73015;SDS011;61893;50.074;14.440;2022-09-21T09:11:02;4.50;;;2.70;;
73015;SDS011;61893;50.074;14.440;2022-09-21T09:19:47;4.30;;;3.05;;
73015;SDS011;61893;50.074;14.440;2022-09-21T09:22:22;5.80;;;3.20;;
73015;SDS011;61893;50.074;14.440;2022-09-21T09:25:04;6.43;;;3.00;;
73015;SDS011;61893;50.074;14.440;2022-09-21T09:31:30;4.53;;;3.08;;
73015;SDS011;61893;50.074;14.440;2022-09-21T09:34:38;4.30;;;3.00;;
73015;SDS011;61893;50.074;14.440;2022-09-21T09:37:23;5.82;;;3.47;;
73015;SDS011;61893;50.074;14.440;2022-09-21T09:40:53;4.65;;;3.35;;
73015;SDS011;61893;50.074;14.440;2022-09-21T09:43:43;4.28;;;3.00;;
73015;SDS011;61893;50.074;14.440;2022-09-21T09:50:37;6.82;;;3.35;;
73015;SDS011;61893;50.074;14.440;2022-09-21T09:53:16;6.32;;;3.05;;
73015;SDS011;61893;50.074;14.440;2022-09-21T09:56:02;6.40;;;2.97;;
73015;SDS011;61893;50.074;14.440;2022-09-21T09:59:29;5.07;;;3.08;;
73015;SDS011;61893;50.074;14.440;2022-09-21T10:03:29;4.18;;;2.58;;
73015;SDS011;61893;50.074;14.440;2022-09-21T10:06:30;5.90;;;2.67;;
73015;SDS011;61893;50.074;14.440;2022-09-21T10:09:32;4.43;;;2.60;;
73015;SDS011;61893;50.074;14.440;2022-09-21T10:12:36;5.13;;;2.30;;
73015;SDS011;61893;50.074;14.440;2022-09-21T10:15:03;3.80;;;2.20;;
73015;SDS011;61893;50.074;14.440;2022-09-21T10:18:08;4.22;;;2.25;;
73015;SDS011;61893;50.074;14.440;2022-09-21T10:21:40;3.80;;;2.00;;
73015;SDS011;61893;50.074;14.440;2022-09-21T10:24:19;3.50;;;2.03;;
73015;SDS011;61893;50.074;14.440;2022-09-21T10:26:50;2.65;;;2.00;;
73015;SDS011;61893;50.074;14.440;2022-09-21T10:29:38;5.93;;;2.33;;
73015;SDS011;61893;50.074;14.440;2022-09-21T10:32:41;5.18;;;2.40;;
73015;SDS011;61893;50.074;14.440;2022-09-21T10:35:37;5.13;;;2.95;;
73015;SDS011;61893;50.074;14.440;2022-09-21T10:38:27;3.95;;;2.53;;
73015;SDS011;61893;50.074;14.440;2022-09-21T10:40:56;5.28;;;2.35;;
73015;SDS011;61893;50.074;14.440;2022-09-21T10:43:40;4.07;;;2.50;;
73015;SDS011;61893;50.074;14.440;2022-09-21T10:46:32;3.53;;;2.40;;
73015;SDS011;61893;50.074;14.440;2022-09-21T10:49:41;4.72;;;2.28;;
73015;SDS011;61893;50.074;14.440;2022-09-21T10:52:46;4.35;;;2.40;;
73015;SDS011;61893;50.074;14.440;2022-09-21T10:55:19;8.05;;;2.65;;
73015;SDS011;61893;50.074;14.440;2022-09-21T10:57:47;3.70;;;2.53;;
73015;SDS011;61893;50.074;14.440;2022-09-21T11:02:52;3.83;;;2.20;;
73015;SDS011;61893;50.074;14.440;2022-09-21T11:05:40;3.50;;;2.13;;
73015;SDS011;61893;50.074;14.440;2022-09-21T11:08:15;8.13;;;2.25;;
73015;SDS011;61893;50.074;14.440;2022-09-21T11:17:59;2.80;;;1.83;;
73015;SDS011;61893;50.074;14.440;2022-09-21T11:27:41;4.30;;;3.42;;
73015;SDS011;61893;50.074;14.440;2022-09-21T12:00:09;2.47;;;1.30;;
73015;SDS011;61893;50.074;14.440;2022-09-21T12:03:22;2.15;;;1.50;;
73015;SDS011;61893;50.074;14.440;2022-09-21T12:12:06;2.75;;;1.70;;
73015;SDS011;61893;50.074;14.440;2022-09-21T12:15:02;4.60;;;2.13;;
73015;SDS011;61893;50.074;14.440;2022-09-21T12:17:55;4.65;;;2.08;;
73015;SDS011;61893;50.074;14.440;2022-09-21T12:21:03;5.97;;;1.80;;
73015;SDS011;61893;50.074;14.440;2022-09-21T12:24:50;3.58;;;1.52;;
73015;SDS011;61893;50.074;14.440;2022-09-21T12:30:26;1.73;;;1.33;;
73015;SDS011;61893;50.074;14.440;2022-09-21T12:33:03;1.70;;;1.38;;
73015;SDS011;61893;50.074;14.440;2022-09-21T12:35:41;4.38;;;1.20;;
73015;SDS011;61893;50.074;14.440;2022-09-21T12:40:44;4.25;;;1.65;;
73015;SDS011;61893;50.074;14.440;2022-09-21T12:44:22;11.88;;;2.28;;
73015;SDS011;61893;50.074;14.440;2022-09-21T12:47:54;5.47;;;1.73;;
73015;SDS011;61893;50.074;14.440;2022-09-21T12:50:48;5.68;;;1.70;;
73015;SDS011;61893;50.074;14.440;2022-09-21T12:53:41;4.25;;;1.48;;
73015;SDS011;61893;50.074;14.440;2022-09-21T13:04:54;5.85;;;1.95;;
73015;SDS011;61893;50.074;14.440;2022-09-21T13:07:53;4.85;;;2.35;;
73015;SDS011;61893;50.074;14.440;2022-09-21T13:10:43;4.13;;;2.10;;
73015;SDS011;61893;50.074;14.440;2022-09-21T13:15:53;1.73;;;1.23;;
73015;SDS011;61893;50.074;14.440;2022-09-21T13:20:59;4.70;;;1.40;;
73015;SDS011;61893;50.074;14.440;2022-09-21T13:23:28;2.88;;;1.40;;
73015;SDS011;61893;50.074;14.440;2022-09-21T13:26:08;2.00;;;1.08;;
73015;SDS011;61893;50.074;14.440;2022-09-21T13:34:38;2.67;;;0.90;;
73015;SDS011;61893;50.074;14.440;2022-09-21T13:37:27;1.42;;;0.80;;
73015;SDS011;61893;50.074;14.440;2022-09-21T13:47:53;2.05;;;0.85;;
73015;SDS011;61893;50.074;14.440;2022-09-21T13:53:00;1.45;;;0.80;;
73015;SDS011;61893;50.074;14.440;2022-09-21T13:58:30;2.97;;;1.00;;
73015;SDS011;61893;50.074;14.440;2022-09-21T14:03:38;1.75;;;1.00;;
73015;SDS011;61893;50.074;14.440;2022-09-21T14:06:15;2.92;;;1.17;;
73015;SDS011;61893;50.074;14.440;2022-09-21T14:08:48;1.65;;;1.00;;
73015;SDS011;61893;50.074;14.440;2022-09-21T14:11:33;1.35;;;0.80;;
73015;SDS011;61893;50.074;14.440;2022-09-21T14:14:12;4.72;;;0.80;;
73015;SDS011;61893;50.074;14.440;2022-09-21T14:16:57;1.98;;;1.05;;
73015;SDS011;61893;50.074;14.440;2022-09-21T14:27:42;2.35;;;1.30;;
73015;SDS011;61893;50.074;14.440;2022-09-21T14:30:15;2.35;;;1.42;;
73015;SDS011;61893;50.074;14.440;2022-09-21T14:32:43;1.85;;;1.08;;
73015;SDS011;61893;50.074;14.440;2022-09-21T14:35:21;1.90;;;1.10;;
73015;SDS011;61893;50.074;14.440;2022-09-21T14:37:55;2.58;;;0.90;;
73015;SDS011;61893;50.074;14.440;2022-09-21T14:40:26;1.85;;;0.80;;
73015;SDS011;61893;50.074;14.440;2022-09-21T14:43:09;1.65;;;0.95;;
73015;SDS011;61893;50.074;14.440;2022-09-21T14:45:45;1.02;;;0.80;;
73015;SDS011;61893;50.074;14.440;2022-09-21T14:51:54;2.75;;;1.40;;
73015;SDS011;61893;50.074;14.440;2022-09-21T14:55:00;1.83;;;1.10;;
73015;SDS011;61893;50.074;14.440;2022-09-21T14:58:05;2.47;;;1.33;;
73015;SDS011;61893;50.074;14.440;2022-09-21T15:00:43;4.55;;;1.35;;
73015;SDS011;61893;50.074;14.440;2022-09-21T15:12:10;3.85;;;1.60;;
73015;SDS011;61893;50.074;14.440;2022-09-21T15:14:43;1.98;;;1.30;;
73015;SDS011;61893;50.074;14.440;2022-09-21T15:17:25;3.22;;;1.55;;
73015;SDS011;61893;50.074;14.440;2022-09-21T15:19:57;2.67;;;1.70;;
73015;SDS011;61893;50.074;14.440;2022-09-21T15:22:25;2.85;;;1.92;;
73015;SDS011;61893;50.074;14.440;2022-09-21T15:25:11;4.07;;;1.90;;
73015;SDS011;61893;50.074;14.440;2022-09-21T15:27:40;7.03;;;1.80;;
73015;SDS011;61893;50.074;14.440;2022-09-21T15:30:21;3.60;;;2.30;;
73015;SDS011;61893;50.074;14.440;2022-09-21T15:32:51;3.28;;;1.90;;
73015;SDS011;61893;50.074;14.440;2022-09-21T15:35:24;2.50;;;1.80;;
73015;SDS011;61893;50.074;14.440;2022-09-21T15:40:22;2.13;;;1.85;;
73015;SDS011;61893;50.074;14.440;2022-09-21T15:45:47;6.95;;;2.00;;
73015;SDS011;61893;50.074;14.440;2022-09-21T15:48:27;7.85;;;4.15;;
73015;SDS011;61893;50.074;14.440;2022-09-21T15:51:06;3.65;;;2.20;;
73015;SDS011;61893;50.074;14.440;2022-09-21T15:53:56;5.40;;;2.17;;
73015;SDS011;61893;50.074;14.440;2022-09-21T15:56:33;6.05;;;2.60;;
73015;SDS011;61893;50.074;14.440;2022-09-21T15:59:05;4.13;;;3.00;;
73015;SDS011;61893;50.074;14.440;2022-09-21T16:01:44;3.15;;;2.03;;
73015;SDS011;61893;50.074;14.440;2022-09-21T16:04:15;5.20;;;2.80;;
73015;SDS011;61893;50.074;14.440;2022-09-21T16:06:45;5.47;;;3.33;;
73015;SDS011;61893;50.074;14.440;2022-09-21T16:09:35;6.50;;;3.20;;
73015;SDS011;61893;50.074;14.440;2022-09-21T16:12:28;6.53;;;3.38;;
73015;SDS011;61893;50.074;14.440;2022-09-21T16:15:04;6.85;;;4.03;;
73015;SDS011;61893;50.074;14.440;2022-09-21T16:18:09;3.47;;;2.10;;
73015;SDS011;61893;50.074;14.440;2022-09-21T16:20:55;5.55;;;2.58;;
73015;SDS011;61893;50.074;14.440;2022-09-21T16:23:21;3.55;;;2.08;;
73015;SDS011;61893;50.074;14.440;2022-09-21T16:25:54;4.45;;;2.28;;
73015;SDS011;61893;50.074;14.440;2022-09-21T16:28:27;5.95;;;2.15;;
73015;SDS011;61893;50.074;14.440;2022-09-21T16:31:22;4.40;;;1.92;;
73015;SDS011;61893;50.074;14.440;2022-09-21T16:38:50;4.20;;;2.10;;
73015;SDS011;61893;50.074;14.440;2022-09-21T16:41:23;3.22;;;2.03;;
73015;SDS011;61893;50.074;14.440;2022-09-21T16:44:03;3.15;;;1.90;;
73015;SDS011;61893;50.074;14.440;2022-09-21T16:46:29;2.90;;;1.70;;
73015;SDS011;61893;50.074;14.440;2022-09-21T16:48:56;5.68;;;2.22;;
73015;SDS011;61893;50.074;14.440;2022-09-21T16:51:24;5.28;;;2.15;;
73015;SDS011;61893;50.074;14.440;2022-09-21T16:53:51;3.50;;;1.95;;
73015;SDS011;61893;50.074;14.440;2022-09-21T16:56:17;3.47;;;1.95;;
73015;SDS011;61893;50.074;14.440;2022-09-21T16:58:43;5.45;;;2.00;;
73015;SDS011;61893;50.074;14.440;2022-09-21T17:01:11;4.82;;;1.88;;
73015;SDS011;61893;50.074;14.440;2022-09-21T17:03:39;5.78;;;2.30;;
73015;SDS011;61893;50.074;14.440;2022-09-21T17:06:18;3.65;;;2.10;;
73015;SDS011;61893;50.074;14.440;2022-09-21T17:08:46;2.95;;;2.35;;
73015;SDS011;61893;50.074;14.440;2022-09-21T17:11:17;4.95;;;2.40;;
73015;SDS011;61893;50.074;14.440;2022-09-21T17:13:47;4.93;;;2.55;;
73015;SDS011;61893;50.074;14.440;2022-09-21T17:16:15;3.67;;;2.58;;
73015;SDS011;61893;50.074;14.440;2022-09-21T17:18:48;3.75;;;2.80;;
73015;SDS011;61893;50.074;14.440;2022-09-21T17:21:17;5.95;;;3.35;;
73015;SDS011;61893;50.074;14.440;2022-09-21T17:23:42;6.47;;;2.95;;
73015;SDS011;61893;50.074;14.440;2022-09-21T17:26:14;5.70;;;2.97;;
73015;SDS011;61893;50.074;14.440;2022-09-21T17:28:43;5.00;;;3.10;;
73015;SDS011;61893;50.074;14.440;2022-09-21T17:31:13;4.20;;;3.00;;
73015;SDS011;61893;50.074;14.440;2022-09-21T17:33:43;5.83;;;2.77;;
73015;SDS011;61893;50.074;14.440;2022-09-21T17:36:15;9.25;;;3.28;;
73015;SDS011;61893;50.074;14.440;2022-09-21T17:38:42;5.18;;;3.13;;
73015;SDS011;61893;50.074;14.440;2022-09-21T17:41:27;5.28;;;3.03;;
73015;SDS011;61893;50.074;14.440;2022-09-21T17:44:15;8.70;;;4.10;;
73015;SDS011;61893;50.074;14.440;2022-09-21T17:49:30;7.78;;;3.90;;
73015;SDS011;61893;50.074;14.440;2022-09-21T17:51:59;6.15;;;3.10;;
73015;SDS011;61893;50.074;14.440;2022-09-21T17:54:58;5.68;;;3.88;;
73015;SDS011;61893;50.074;14.440;2022-09-21T18:01:04;5.95;;;3.65;;
73015;SDS011;61893;50.074;14.440;2022-09-21T18:03:44;4.88;;;3.40;;
73015;SDS011;61893;50.074;14.440;2022-09-21T18:06:10;5.75;;;3.53;;
73015;SDS011;61893;50.074;14.440;2022-09-21T18:08:50;6.43;;;3.47;;
73015;SDS011;61893;50.074;14.440;2022-09-21T18:11:47;4.45;;;3.20;;
73015;SDS011;61893;50.074;14.440;2022-09-21T18:20:36;5.05;;;3.83;;
73015;SDS011;61893;50.074;14.440;2022-09-21T18:23:17;6.47;;;3.90;;
73015;SDS011;61893;50.074;14.440;2022-09-21T18:25:54;7.50;;;4.13;;
73015;SDS011;61893;50.074;14.440;2022-09-21T18:28:37;7.85;;;4.55;;
73015;SDS011;61893;50.074;14.440;2022-09-21T18:37:20;11.77;;;4.47;;
73015;SDS011;61893;50.074;14.440;2022-09-21T18:40:02;9.52;;;5.22;;
73015;SDS011;61893;50.074;14.440;2022-09-21T18:48:17;9.98;;;5.20;;
73015;SDS011;61893;50.074;14.440;2022-09-21T18:53:39;8.20;;;5.15;;
73015;SDS011;61893;50.074;14.440;2022-09-21T18:56:11;9.90;;;6.28;;
73015;SDS011;61893;50.074;14.440;2022-09-21T18:58:38;11.45;;;5.63;;
73015;SDS011;61893;50.074;14.440;2022-09-21T19:01:05;9.13;;;5.53;;
73015;SDS011;61893;50.074;14.440;2022-09-21T19:03:31;9.25;;;5.45;;